Time;durP1;ratioP1;P1;durP2;ratioP2;P2;SDS_P1;SDS_P2;PMS_P1;PMS_P2;Temp;Humidity;BMP_temperature;BMP_pressure;BME280_temperature;BME280_humidity;BME280_pressure;Samples;Min_cycle;Max_cycle;Signal;HPM_P1;HPM_P2
2021/01/13 00:01:50;;;;;;;6.97;4.00;;;0.90;99.90;;;;;;5051512;28;20291;-64
2021/01/13 00:04:15;;;;;;;7.73;4.53;;;0.90;99.90;;;;;;5050908;28;20171;-63
2021/01/13 00:06:41;;;;;;;10.03;4.33;;;0.80;99.90;;;;;;5051247;28;20179;-62
2021/01/13 00:09:06;;;;;;;10.50;4.20;;;0.90;99.90;;;;;;5033524;28;20287;-64
2021/01/13 00:11:32;;;;;;;13.33;4.17;;;0.90;99.90;;;;;;5051219;28;20178;-64
2021/01/13 00:13:58;;;;;;;6.87;4.00;;;1.00;99.90;;;;;;5051399;28;20183;-62
2021/01/13 00:16:23;;;;;;;5.93;4.03;;;1.00;99.90;;;;;;5050872;28;20186;-63
2021/01/13 00:18:49;;;;;;;10.40;3.97;;;1.10;99.90;;;;;;5051779;28;20183;-62
2021/01/13 00:21:17;;;;;;;6.00;3.87;;;1.10;99.90;;;;;;5050650;28;20195;-63
2021/01/13 00:23:47;;;;;;;5.17;3.83;;;1.00;99.90;;;;;;5051029;28;20295;-64
2021/01/13 00:26:24;;;;;;;5.53;3.50;;;0.90;99.90;;;;;;5051008;28;20472;-63
2021/01/13 00:28:51;;;;;;;6.83;3.73;;;0.80;99.90;;;;;;5050240;28;20429;-64
2021/01/13 00:31:18;;;;;;;7.40;3.80;;;0.80;99.90;;;;;;5050104;28;20453;-62
2021/01/13 00:33:47;;;;;;;6.97;3.73;;;0.80;99.90;;;;;;5050798;28;20429;-63
2021/01/13 00:36:23;;;;;;;10.03;4.13;;;0.80;99.90;;;;;;5051144;28;20480;-62
2021/01/13 00:38:49;;;;;;;5.37;3.63;;;0.80;99.90;;;;;;5050814;28;20942;-63
2021/01/13 00:41:15;;;;;;;5.73;5.10;;;0.80;99.90;;;;;;5051235;28;20783;-64
2021/01/13 00:43:41;;;;;;;6.53;4.80;;;0.80;99.90;;;;;;5050762;28;20937;-64
2021/01/13 00:46:06;;;;;;;9.10;4.20;;;0.70;99.90;;;;;;5050759;28;20175;-63
2021/01/13 00:48:32;;;;;;;9.57;5.07;;;0.70;99.90;;;;;;5050578;28;20175;-64
2021/01/13 00:50:58;;;;;;;7.67;4.80;;;0.70;99.90;;;;;;5050772;28;20219;-63
2021/01/13 00:53:24;;;;;;;6.23;4.33;;;0.70;99.90;;;;;;5050806;28;20183;-64
2021/01/13 00:55:50;;;;;;;9.90;4.53;;;0.60;99.90;;;;;;5050867;28;20421;-63
2021/01/13 00:58:15;;;;;;;6.93;4.83;;;0.60;99.90;;;;;;5050849;28;20307;-64
2021/01/13 01:00:41;;;;;;;9.60;4.63;;;0.60;99.90;;;;;;5050721;28;20628;-63
2021/01/13 01:03:07;;;;;;;10.50;4.80;;;0.60;99.90;;;;;;5050302;28;20183;-64
2021/01/13 01:05:32;;;;;;;5.67;4.73;;;0.60;99.90;;;;;;5051086;28;20175;-62
2021/01/13 01:07:58;;;;;;;6.53;4.53;;;0.50;99.90;;;;;;5050501;28;20906;-64
2021/01/13 01:10:32;;;;;;;9.07;5.73;;;0.50;99.90;;;;;;5050779;28;20248;-64
2021/01/13 01:12:58;;;;;;;9.37;5.17;;;0.50;99.90;;;;;;5050437;28;20228;-64
2021/01/13 01:15:24;;;;;;;7.73;4.53;;;0.50;99.90;;;;;;5050600;28;20968;-65
2021/01/13 01:17:51;;;;;;;8.27;5.57;;;0.50;99.90;;;;;;5032636;28;20445;-64
2021/01/13 01:20:17;;;;;;;11.40;6.07;;;0.50;99.90;;;;;;5050408;28;20434;-64
2021/01/13 01:22:51;;;;;;;10.07;5.70;;;0.50;99.90;;;;;;5050732;28;20545;-64
2021/01/13 01:25:16;;;;;;;9.70;6.30;;;0.50;99.90;;;;;;5050414;28;20418;-64
2021/01/13 01:27:42;;;;;;;11.43;5.90;;;0.50;99.90;;;;;;5050466;28;20430;-64
2021/01/13 01:30:09;;;;;;;8.97;5.60;;;0.40;99.90;;;;;;5050202;28;20178;-64
2021/01/13 01:32:34;;;;;;;11.27;5.90;;;0.40;99.90;;;;;;5036172;28;20211;-64
2021/01/13 01:35:00;;;;;;;8.03;5.77;;;0.40;99.90;;;;;;5046717;28;20448;-63
2021/01/13 01:37:25;;;;;;;8.93;6.00;;;0.40;99.90;;;;;;5047564;28;20187;-64
2021/01/13 01:39:51;;;;;;;12.13;5.67;;;0.40;99.90;;;;;;5052323;28;20201;-64
2021/01/13 01:42:17;;;;;;;9.47;5.73;;;0.40;99.90;;;;;;5047092;28;20554;-64
2021/01/13 01:44:42;;;;;;;7.47;5.57;;;0.40;99.90;;;;;;5044362;28;20183;-63
2021/01/13 01:47:08;;;;;;;11.20;6.50;;;0.30;99.90;;;;;;5048194;28;20629;-64
2021/01/13 01:49:37;;;;;;;9.10;5.87;;;0.20;99.90;;;;;;5048329;28;20176;-63
2021/01/13 01:52:15;;;;;;;8.80;5.97;;;0.20;99.90;;;;;;5025842;28;20438;-63
2021/01/13 01:54:52;;;;;;;11.97;7.10;;;0.20;99.90;;;;;;5051412;28;20421;-63
2021/01/13 01:57:22;;;;;;;13.30;6.53;;;0.20;99.90;;;;;;5038645;28;20432;-63
2021/01/13 01:59:52;;;;;;;10.00;6.23;;;0.20;99.90;;;;;;5042135;28;20513;-62
2021/01/13 02:02:20;;;;;;;10.60;6.27;;;0.10;99.90;;;;;;5037777;28;20572;-63
2021/01/13 02:04:51;;;;;;;15.63;6.30;;;0.20;99.90;;;;;;5040559;28;20418;-63
2021/01/13 02:07:28;;;;;;;13.37;6.53;;;0.30;99.90;;;;;;5048565;28;20414;-64
2021/01/13 02:09:54;;;;;;;8.30;5.97;;;0.10;99.90;;;;;;5048878;28;20998;-64
2021/01/13 02:12:26;;;;;;;11.07;6.70;;;0.10;99.90;;;;;;5039297;28;20433;-64
2021/01/13 02:14:52;;;;;;;9.90;6.20;;;0.10;99.90;;;;;;5038202;28;20178;-62
2021/01/13 02:17:34;;;;;;;9.80;5.40;;;0.10;99.90;;;;;;5045900;28;20430;-64
2021/01/13 02:20:06;;;;;;;10.63;6.60;;;-0.10;99.90;;;;;;5037583;28;20411;-63
2021/01/13 02:22:53;;;;;;;13.67;6.97;;;-0.10;99.90;;;;;;5043351;28;20449;-64
2021/01/13 02:25:45;;;;;;;10.77;6.37;;;-0.10;99.90;;;;;;5049946;28;20458;-63
2021/01/13 02:28:17;;;;;;;10.93;6.87;;;-0.10;99.90;;;;;;5035899;28;20406;-64
2021/01/13 02:31:24;;;;;;;9.60;6.60;;;-0.10;99.90;;;;;;5041307;28;20520;-64
2021/01/13 02:33:59;;;;;;;8.57;5.57;;;-0.20;99.90;;;;;;5052481;28;20429;-64
2021/01/13 02:36:38;;;;;;;8.77;6.20;;;-0.30;99.90;;;;;;5052960;28;20428;-63
2021/01/13 02:39:07;;;;;;;7.00;5.63;;;-0.30;99.90;;;;;;5052739;28;20507;-63
2021/01/13 02:41:42;;;;;;;9.07;6.50;;;-0.30;99.90;;;;;;5052510;28;20603;-63
2021/01/13 02:44:09;;;;;;;10.53;5.70;;;-0.20;99.90;;;;;;5052663;28;20429;-63
2021/01/13 02:46:56;;;;;;;15.23;7.40;;;-0.20;99.90;;;;;;5052104;28;20489;-63
2021/01/13 02:49:29;;;;;;;14.30;6.60;;;-0.20;99.90;;;;;;5052351;28;20989;-63
2021/01/13 02:52:10;;;;;;;9.93;6.40;;;-0.30;99.90;;;;;;5052341;28;20534;-63
2021/01/13 02:54:41;;;;;;;11.27;6.77;;;-0.20;99.90;;;;;;5052634;28;20900;-62
2021/01/13 02:57:15;;;;;;;12.93;6.23;;;-0.20;99.90;;;;;;5052391;28;20508;-64
2021/01/13 02:59:45;;;;;;;9.53;6.50;;;-0.20;99.90;;;;;;5052423;28;20421;-64
2021/01/13 03:02:11;;;;;;;11.57;6.40;;;-0.20;99.90;;;;;;5052183;28;20910;-62
2021/01/13 03:04:38;;;;;;;14.20;7.00;;;-0.20;99.90;;;;;;5052386;28;20451;-63
2021/01/13 03:07:15;;;;;;;11.43;6.10;;;-0.20;99.90;;;;;;5052340;28;20421;-64
2021/01/13 03:09:45;;;;;;;13.00;6.07;;;-0.20;99.90;;;;;;5052596;28;20425;-63
2021/01/13 03:12:22;;;;;;;11.93;6.30;;;-0.30;99.90;;;;;;5052276;28;20200;-64
2021/01/13 03:14:56;;;;;;;10.70;6.00;;;-0.40;99.90;;;;;;5052451;28;20417;-64
2021/01/13 03:18:00;;;;;;;11.67;6.83;;;-0.30;99.90;;;;;;5051907;28;20425;-63
2021/01/13 03:20:26;;;;;;;10.30;6.83;;;-0.30;99.90;;;;;;5047734;28;20425;-62
2021/01/13 03:23:22;;;;;;;9.37;5.87;;;-0.30;99.90;;;;;;5052177;28;20453;-62
2021/01/13 03:25:53;;;;;;;11.87;6.87;;;-0.40;99.90;;;;;;5052012;28;20412;-63
2021/01/13 03:28:23;;;;;;;17.57;6.77;;;-0.30;99.90;;;;;;5052108;28;20413;-63
2021/01/13 03:30:51;;;;;;;10.90;6.40;;;-0.30;99.90;;;;;;5050150;28;20842;-62
2021/01/13 03:33:20;;;;;;;9.47;6.47;;;-0.40;99.90;;;;;;5051805;28;20455;-63
2021/01/13 03:35:55;;;;;;;12.57;6.53;;;-0.40;99.90;;;;;;5051442;28;20420;-64
2021/01/13 03:38:20;;;;;;;15.37;6.37;;;-0.40;99.90;;;;;;5051771;28;20474;-62
2021/01/13 03:40:49;;;;;;;10.70;6.33;;;-0.40;99.90;;;;;;5051754;28;20414;-62
2021/01/13 03:43:20;;;;;;;11.33;5.47;;;-0.30;99.90;;;;;;5051794;28;20172;-64
2021/01/13 03:45:54;;;;;;;12.07;5.37;;;-0.30;99.90;;;;;;5051998;28;20418;-63
2021/01/13 03:48:19;;;;;;;10.73;5.33;;;-0.40;99.90;;;;;;5050471;28;20456;-62
2021/01/13 03:50:47;;;;;;;11.20;5.30;;;-0.40;99.90;;;;;;5051613;28;20503;-63
2021/01/13 03:53:14;;;;;;;10.13;5.03;;;-0.30;99.90;;;;;;5051429;28;20284;-64
2021/01/13 03:55:42;;;;;;;10.20;4.33;;;-0.40;99.90;;;;;;5051327;28;20422;-62
2021/01/13 03:58:24;;;;;;;8.40;4.37;;;-0.40;99.90;;;;;;5050804;28;20406;-63
2021/01/13 04:01:16;;;;;;;8.83;4.87;;;-0.30;99.90;;;;;;5033934;28;20413;-64
2021/01/13 04:04:04;;;;;;;6.93;4.27;;;-0.30;99.90;;;;;;5050392;28;20417;-63
2021/01/13 04:06:43;;;;;;;7.00;4.40;;;-0.30;99.90;;;;;;5051234;28;20527;-63
2021/01/13 04:09:11;;;;;;;7.77;4.07;;;-0.20;99.90;;;;;;5051352;28;20771;-64
2021/01/13 04:11:37;;;;;;;17.13;4.80;;;-0.30;99.90;;;;;;5050046;28;20417;-64
2021/01/13 04:14:04;;;;;;;9.57;5.17;;;-0.30;99.90;;;;;;5051285;28;20425;-64
2021/01/13 04:16:36;;;;;;;11.70;5.23;;;-0.40;99.90;;;;;;5050782;28;20852;-62
2021/01/13 04:19:04;;;;;;;8.93;4.07;;;-0.30;99.90;;;;;;5051103;28;20440;-64
2021/01/13 04:21:30;;;;;;;11.17;5.07;;;-0.30;99.90;;;;;;5050588;28;20461;-63
2021/01/13 04:24:00;;;;;;;6.93;5.27;;;-0.30;99.90;;;;;;5051086;28;20421;-63
2021/01/13 04:26:27;;;;;;;10.27;5.47;;;-0.30;99.90;;;;;;5050794;28;20640;-63
2021/01/13 04:28:53;;;;;;;13.00;4.83;;;-0.40;99.90;;;;;;5050835;28;20908;-63
2021/01/13 04:31:25;;;;;;;10.40;5.87;;;-0.50;99.90;;;;;;5050500;28;20449;-63
2021/01/13 04:33:52;;;;;;;9.50;5.43;;;-0.50;99.90;;;;;;5050697;28;20424;-63
2021/01/13 04:36:19;;;;;;;12.23;6.20;;;-0.60;99.90;;;;;;5050935;28;20418;-62
2021/01/13 04:38:46;;;;;;;10.40;5.77;;;-0.40;99.90;;;;;;5050566;28;20445;-64
2021/01/13 04:41:14;;;;;;;9.63;5.93;;;-0.40;99.90;;;;;;5050890;28;20540;-63
2021/01/13 04:43:50;;;;;;;10.90;6.50;;;-0.40;99.90;;;;;;5049417;28;20435;-63
2021/01/13 04:46:25;;;;;;;10.13;5.90;;;-0.40;99.90;;;;;;5050919;28;20421;-63
2021/01/13 04:49:09;;;;;;;12.20;6.00;;;-0.40;99.90;;;;;;5050251;28;20827;-64
2021/01/13 04:51:40;;;;;;;11.30;6.47;;;-0.50;99.90;;;;;;5050750;28;20422;-63
2021/01/13 04:54:11;;;;;;;14.50;6.33;;;-0.50;99.90;;;;;;5050636;28;20424;-63
2021/01/13 04:56:42;;;;;;;13.00;5.30;;;-0.40;99.90;;;;;;5050480;28;20424;-63
2021/01/13 04:59:55;;;;;;;13.23;5.00;;;-0.50;99.90;;;;;;5050385;28;20483;-63
2021/01/13 05:02:45;;;;;;;12.93;5.33;;;-0.50;99.90;;;;;;5031990;28;20465;-63
2021/01/13 05:05:20;;;;;;;11.13;5.43;;;-0.60;99.90;;;;;;5050909;28;20478;-63
2021/01/13 05:08:18;;;;;;;14.67;5.97;;;-0.50;99.90;;;;;;5050564;28;20410;-63
2021/01/13 05:10:50;;;;;;;11.83;5.60;;;-0.50;99.90;;;;;;5037615;28;20471;-63
2021/01/13 05:13:17;;;;;;;10.50;5.37;;;-0.40;99.90;;;;;;5054471;28;20896;-63
2021/01/13 05:15:55;;;;;;;11.40;6.33;;;-0.40;99.90;;;;;;5054548;28;20409;-63
2021/01/13 05:18:35;;;;;;;9.97;6.20;;;-0.40;99.90;;;;;;5054260;28;20424;-63
2021/01/13 05:21:02;;;;;;;10.07;6.23;;;-0.40;99.90;;;;;;5054121;28;20563;-64
2021/01/13 05:23:30;;;;;;;9.10;6.30;;;-0.50;99.90;;;;;;5053986;28;20413;-62
2021/01/13 05:25:56;;;;;;;9.53;6.17;;;-0.40;99.90;;;;;;5054064;28;20414;-62
2021/01/13 05:28:23;;;;;;;12.53;5.77;;;-0.40;99.90;;;;;;5054035;28;20421;-63
2021/01/13 05:30:54;;;;;;;10.93;5.67;;;-0.40;99.90;;;;;;5054046;28;20625;-63
2021/01/13 05:33:22;;;;;;;12.43;5.97;;;-0.60;99.90;;;;;;5052871;28;20953;-64
2021/01/13 05:35:56;;;;;;;8.20;5.60;;;-0.50;99.90;;;;;;5053861;28;20926;-64
2021/01/13 05:38:36;;;;;;;14.90;6.57;;;-0.60;99.90;;;;;;5054040;28;20428;-63
2021/01/13 05:41:11;;;;;;;16.03;6.73;;;-0.50;99.90;;;;;;5053835;28;20456;-63
2021/01/13 05:43:46;;;;;;;13.60;6.13;;;-0.50;99.90;;;;;;5053098;28;20559;-64
2021/01/13 05:46:14;;;;;;;11.37;6.43;;;-0.60;99.90;;;;;;5054354;28;20417;-63
2021/01/13 05:48:41;;;;;;;17.37;6.67;;;-0.50;99.90;;;;;;5052612;28;20942;-64
2021/01/13 05:51:13;;;;;;;12.97;7.10;;;-0.40;99.90;;;;;;5053722;28;21486;-63
2021/01/13 05:53:49;;;;;;;11.20;6.83;;;-0.50;99.90;;;;;;5053608;28;20433;-63
2021/01/13 05:56:17;;;;;;;15.27;6.40;;;-0.40;99.90;;;;;;5052269;28;20413;-62
2021/01/13 05:58:50;;;;;;;15.30;7.90;;;-0.40;99.90;;;;;;5053328;28;20455;-62
2021/01/13 06:01:48;;;;;;;20.67;7.70;;;-0.40;99.90;;;;;;5053122;28;20449;-62
2021/01/13 06:04:16;;;;;;;15.03;7.10;;;-0.30;99.90;;;;;;5052338;28;20452;-64
2021/01/13 06:07:17;;;;;;;14.43;7.57;;;-0.20;99.90;;;;;;5053367;28;20413;-63
2021/01/13 06:09:43;;;;;;;12.57;5.93;;;-0.30;99.90;;;;;;5053241;28;20416;-63
2021/01/13 06:12:17;;;;;;;10.53;5.80;;;-0.30;99.90;;;;;;5053428;28;20474;-64
2021/01/13 06:14:43;;;;;;;15.83;7.00;;;-0.30;99.90;;;;;;5053667;28;20447;-62
2021/01/13 06:17:29;;;;;;;14.90;7.97;;;-0.30;99.90;;;;;;5053170;28;20421;-63
2021/01/13 06:19:56;;;;;;;14.90;7.83;;;-0.30;99.90;;;;;;5053046;28;20182;-62
2021/01/13 06:22:30;;;;;;;18.67;7.47;;;-0.30;99.90;;;;;;5052722;28;20446;-63
2021/01/13 06:25:04;;;;;;;18.60;6.73;;;-0.30;99.90;;;;;;5053277;28;20493;-63
2021/01/13 06:27:44;;;;;;;20.17;7.43;;;-0.30;99.90;;;;;;5052966;28;20420;-64
2021/01/13 06:30:29;;;;;;;18.57;7.97;;;-0.30;99.90;;;;;;5052018;28;20437;-64
2021/01/13 06:33:21;;;;;;;14.20;6.93;;;-0.30;99.90;;;;;;5052490;28;20461;-64
2021/01/13 06:36:01;;;;;;;24.80;7.83;;;-0.30;99.90;;;;;;5053113;28;20988;-63
2021/01/13 06:38:38;;;;;;;19.07;8.07;;;-0.30;99.90;;;;;;5034665;28;20829;-63
2021/01/13 06:41:04;;;;;;;14.97;8.07;;;-0.30;99.90;;;;;;5052631;28;20499;-62
2021/01/13 06:43:30;;;;;;;17.97;7.80;;;-0.30;99.90;;;;;;5052705;28;20417;-63
2021/01/13 06:45:56;;;;;;;19.07;7.60;;;-0.30;99.90;;;;;;5034647;28;20761;-63
2021/01/13 06:48:27;;;;;;;20.00;7.07;;;-0.30;99.90;;;;;;5052639;28;20170;-63
2021/01/13 06:51:00;;;;;;;16.50;6.73;;;-0.30;99.90;;;;;;5051392;28;20496;-63
2021/01/13 06:53:36;;;;;;;14.03;6.93;;;-0.30;99.90;;;;;;5051435;28;20422;-63
2021/01/13 06:56:10;;;;;;;13.93;7.53;;;-0.30;99.90;;;;;;5052580;28;20460;-64
2021/01/13 06:58:37;;;;;;;18.30;8.03;;;-0.20;99.90;;;;;;5052015;28;20454;-64
2021/01/13 07:01:04;;;;;;;21.77;7.80;;;-0.20;99.90;;;;;;5052429;28;20463;-64
2021/01/13 07:03:32;;;;;;;20.70;8.23;;;-0.10;99.90;;;;;;5052021;28;20768;-64
2021/01/13 07:06:16;;;;;;;23.40;8.67;;;-0.10;99.90;;;;;;5052097;28;20472;-63
2021/01/13 07:08:41;;;;;;;20.57;8.43;;;-0.20;99.90;;;;;;5052057;28;20456;-63
2021/01/13 07:11:11;;;;;;;24.33;8.27;;;-0.20;99.90;;;;;;5052220;28;20444;-63
2021/01/13 07:13:41;;;;;;;18.00;7.93;;;-0.10;99.90;;;;;;5052248;28;20316;-63
2021/01/13 07:16:08;;;;;;;19.87;8.07;;;-0.10;99.90;;;;;;5051898;28;20919;-62
2021/01/13 07:18:35;;;;;;;23.57;8.20;;;0.00;99.90;;;;;;5051964;28;20416;-63
2021/01/13 07:21:09;;;;;;;21.90;8.33;;;0.00;99.90;;;;;;5051617;28;20618;-63
2021/01/13 07:23:36;;;;;;;10.30;6.07;;;0.10;99.90;;;;;;5051708;28;20413;-63
2021/01/13 07:26:02;;;;;;;15.73;7.50;;;0.20;99.90;;;;;;5052173;28;20827;-64
2021/01/13 07:28:30;;;;;;;13.83;6.40;;;0.20;99.90;;;;;;5051713;28;20417;-62
2021/01/13 07:30:58;;;;;;;12.93;5.67;;;0.30;99.90;;;;;;5051629;28;20470;-63
2021/01/13 07:33:28;;;;;;;13.50;6.77;;;0.30;99.90;;;;;;5051490;28;20570;-65
2021/01/13 07:35:58;;;;;;;13.90;6.93;;;0.40;99.90;;;;;;5051573;28;20410;-65
2021/01/13 07:38:28;;;;;;;18.53;7.07;;;0.40;99.90;;;;;;5051216;28;20418;-64
2021/01/13 07:41:10;;;;;;;14.30;7.23;;;0.30;99.90;;;;;;5051369;28;21026;-62
2021/01/13 07:43:57;;;;;;;15.63;6.77;;;0.40;99.90;;;;;;5051677;28;20430;-62
2021/01/13 07:46:33;;;;;;;18.00;6.33;;;0.40;99.90;;;;;;5051454;28;20412;-63
2021/01/13 07:49:19;;;;;;;16.67;6.20;;;0.50;99.90;;;;;;5051478;28;20462;-63
2021/01/13 07:51:57;;;;;;;14.97;6.93;;;0.60;99.90;;;;;;5050459;28;20418;-63
2021/01/13 07:54:28;;;;;;;13.07;6.10;;;0.60;99.90;;;;;;5051286;28;20828;-62
2021/01/13 07:56:59;;;;;;;16.23;6.80;;;0.60;99.90;;;;;;5051160;28;20420;-63
2021/01/13 07:59:41;;;;;;;16.70;8.67;;;0.70;99.90;;;;;;5051111;28;20483;-64
2021/01/13 08:02:44;;;;;;;10.70;6.80;;;0.70;99.90;;;;;;5051364;28;20966;-64
2021/01/13 08:05:49;;;;;;;14.00;6.23;;;0.80;99.90;;;;;;5051019;28;20413;-68
2021/01/13 08:08:24;;;;;;;10.43;5.60;;;0.90;99.90;;;;;;5047579;28;20421;-66
2021/01/13 08:10:52;;;;;;;12.70;6.83;;;1.00;99.90;;;;;;5050065;28;20470;-67
2021/01/13 08:13:32;;;;;;;19.17;7.87;;;1.00;99.90;;;;;;5033231;28;20410;-67
2021/01/13 08:16:24;;;;;;;15.80;6.53;;;1.10;99.90;;;;;;5051066;28;20413;-67
2021/01/13 08:19:15;;;;;;;12.70;6.53;;;1.10;99.90;;;;;;5050722;28;20572;-69
2021/01/13 08:21:53;;;;;;;13.47;6.10;;;1.20;99.90;;;;;;5049371;28;20476;-66
2021/01/13 08:24:25;;;;;;;15.13;7.37;;;1.30;99.90;;;;;;5049979;28;20417;-67
2021/01/13 08:26:52;;;;;;;13.60;6.23;;;1.30;99.90;;;;;;5050651;28;20468;-66
2021/01/13 08:29:22;;;;;;;11.50;5.57;;;1.30;99.90;;;;;;5050950;28;20406;-66
2021/01/13 08:32:10;;;;;;;17.13;6.43;;;1.40;99.90;;;;;;5050698;28;21100;-66
2021/01/13 08:34:37;;;;;;;11.83;6.73;;;1.50;99.90;;;;;;5050894;28;20422;-66
2021/01/13 08:37:02;;;;;;;10.00;5.90;;;1.50;99.90;;;;;;5050741;28;20808;-64
2021/01/13 08:39:31;;;;;;;17.80;7.43;;;1.60;99.90;;;;;;5050888;28;20425;-65
2021/01/13 08:42:19;;;;;;;14.77;6.90;;;1.60;99.90;;;;;;5050550;28;20231;-64
2021/01/13 08:44:44;;;;;;;16.07;7.53;;;1.70;99.90;;;;;;5050166;28;20789;-64
2021/01/13 08:47:10;;;;;;;12.90;5.63;;;1.80;99.90;;;;;;5054732;28;20425;-64
2021/01/13 08:49:36;;;;;;;13.37;6.00;;;1.80;99.90;;;;;;5054848;28;20182;-64
2021/01/13 08:52:22;;;;;;;11.10;6.13;;;1.90;99.90;;;;;;5054665;28;20189;-64
2021/01/13 08:54:47;;;;;;;12.17;5.67;;;2.00;99.90;;;;;;5036512;28;20421;-65
2021/01/13 08:57:14;;;;;;;13.13;6.30;;;2.10;99.90;;;;;;5054751;28;20428;-65
2021/01/13 08:59:47;;;;;;;11.13;5.03;;;2.20;99.90;;;;;;5054609;28;20181;-64
2021/01/13 09:02:18;;;;;;;13.67;6.57;;;2.30;99.90;;;;;;5054524;28;20805;-65
2021/01/13 09:04:56;;;;;;;12.70;6.33;;;2.30;99.90;;;;;;5054362;28;20511;-64
2021/01/13 09:07:43;;;;;;;18.27;6.43;;;2.40;99.90;;;;;;5055000;28;20523;-64
2021/01/13 09:10:11;;;;;;;19.07;6.07;;;2.50;99.90;;;;;;5053321;28;20924;-64
2021/01/13 09:12:44;;;;;;;13.90;7.27;;;2.50;99.90;;;;;;5054486;28;20414;-64
2021/01/13 09:15:19;;;;;;;14.97;7.03;;;2.60;99.90;;;;;;5054671;28;20465;-64
2021/01/13 09:17:53;;;;;;;11.17;6.37;;;2.60;99.90;;;;;;5036602;28;20835;-64
2021/01/13 09:20:23;;;;;;;13.23;6.43;;;2.70;99.90;;;;;;5054563;28;21021;-64
2021/01/13 09:22:59;;;;;;;16.70;7.17;;;2.70;99.90;;;;;;5054333;28;20452;-64
2021/01/13 09:25:30;;;;;;;15.97;7.00;;;2.70;99.90;;;;;;5054029;28;20487;-64
2021/01/13 09:28:00;;;;;;;10.00;6.67;;;2.90;99.90;;;;;;5054087;28;20483;-64
2021/01/13 09:30:26;;;;;;;14.97;7.80;;;2.80;99.90;;;;;;5054181;28;20448;-65
2021/01/13 09:32:54;;;;;;;13.10;6.20;;;2.80;99.90;;;;;;5053348;28;20485;-65
2021/01/13 09:35:29;;;;;;;14.60;8.30;;;2.90;99.90;;;;;;5054538;28;20517;-64
2021/01/13 09:37:56;;;;;;;12.87;6.50;;;3.00;99.90;;;;;;5053935;28;20425;-63
2021/01/13 09:40:23;;;;;;;13.80;7.20;;;3.10;99.90;;;;;;5053932;28;20915;-63
2021/01/13 09:42:56;;;;;;;12.33;6.20;;;3.10;99.90;;;;;;5036205;28;20457;-63
2021/01/13 09:45:35;;;;;;;12.67;6.57;;;3.10;99.90;;;;;;5054205;28;20504;-63
2021/01/13 09:48:16;;;;;;;14.97;5.77;;;3.20;99.90;;;;;;5053769;28;20409;-62
2021/01/13 09:50:42;;;;;;;19.53;6.43;;;3.10;99.90;;;;;;5053566;28;20432;-62
2021/01/13 09:53:08;;;;;;;14.10;6.47;;;3.10;99.90;;;;;;5053764;28;20413;-63
2021/01/13 09:55:35;;;;;;;18.97;7.43;;;3.10;99.90;;;;;;5053153;28;20258;-63
2021/01/13 09:58:38;;;;;;;17.90;5.83;;;3.00;99.90;;;;;;5053573;28;20645;-62
2021/01/13 10:01:08;;;;;;;15.07;5.33;;;3.00;99.90;;;;;;5036992;28;20785;-63
2021/01/13 10:03:34;;;;;;;9.20;5.10;;;3.10;99.90;;;;;;5053713;28;20823;-63
2021/01/13 10:06:00;;;;;;;14.33;5.30;;;3.10;99.90;;;;;;5053412;28;20413;-62
2021/01/13 10:08:32;;;;;;;11.13;4.70;;;3.10;99.90;;;;;;5053568;28;20174;-64
2021/01/13 10:11:01;;;;;;;9.37;4.83;;;3.10;99.90;;;;;;5053283;28;20179;-62
2021/01/13 10:13:29;;;;;;;10.67;5.10;;;3.20;99.90;;;;;;5053226;28;20410;-63
2021/01/13 10:16:00;;;;;;;11.17;4.73;;;3.20;99.90;;;;;;5053341;28;20421;-64
2021/01/13 10:18:27;;;;;;;6.40;4.00;;;3.20;99.90;;;;;;5053514;28;20421;-63
2021/01/13 10:20:57;;;;;;;17.50;5.07;;;3.30;99.90;;;;;;5053255;28;20460;-63
2021/01/13 10:23:31;;;;;;;10.50;4.03;;;3.20;99.90;;;;;;5053368;28;20876;-63
2021/01/13 10:26:07;;;;;;;13.93;4.87;;;3.20;99.90;;;;;;5052982;28;20999;-63
2021/01/13 10:28:35;;;;;;;12.00;4.60;;;3.20;99.90;;;;;;5053229;28;21232;-63
2021/01/13 10:31:01;;;;;;;9.27;4.67;;;3.20;99.90;;;;;;5053231;28;20773;-63
2021/01/13 10:33:35;;;;;;;13.57;4.87;;;3.20;99.90;;;;;;5052206;28;20496;-62
2021/01/13 10:36:01;;;;;;;11.47;4.07;;;3.20;99.90;;;;;;5052642;28;20496;-63
2021/01/13 10:38:29;;;;;;;12.27;4.40;;;3.20;99.90;;;;;;5053000;28;20513;-63
2021/01/13 10:40:55;;;;;;;14.60;4.20;;;3.30;99.90;;;;;;5053065;28;20537;-63
2021/01/13 10:43:21;;;;;;;7.70;3.53;;;3.20;99.90;;;;;;5045510;28;20501;-62
2021/01/13 10:45:57;;;;;;;12.53;3.83;;;3.20;99.90;;;;;;5052645;28;20179;-63
2021/01/13 10:48:23;;;;;;;9.77;4.00;;;3.40;99.90;;;;;;5052787;28;20448;-63
2021/01/13 10:50:51;;;;;;;7.63;4.13;;;3.20;99.90;;;;;;5052484;28;20456;-63
2021/01/13 10:53:17;;;;;;;8.97;3.90;;;3.20;99.90;;;;;;5046110;28;20167;-62
2021/01/13 10:55:50;;;;;;;11.97;3.30;;;3.30;99.90;;;;;;5035729;28;20432;-62
2021/01/13 10:58:24;;;;;;;8.17;3.77;;;3.30;99.90;;;;;;5052313;28;20163;-63
2021/01/13 11:01:03;;;;;;;13.53;4.37;;;3.30;99.90;;;;;;5049766;28;20408;-63
2021/01/13 11:03:33;;;;;;;7.23;3.40;;;3.20;99.90;;;;;;5052370;28;20460;-63
2021/01/13 11:05:59;;;;;;;5.80;2.87;;;3.20;99.90;;;;;;5036919;28;20419;-63
2021/01/13 11:08:28;;;;;;;8.07;3.10;;;3.20;99.90;;;;;;5040876;28;20410;-63
2021/01/13 11:11:06;;;;;;;8.73;3.03;;;3.30;99.90;;;;;;5052457;28;20179;-62
2021/01/13 11:13:42;;;;;;;7.33;2.97;;;3.30;99.90;;;;;;5051922;28;20421;-63
2021/01/13 11:16:08;;;;;;;7.13;2.90;;;3.50;99.90;;;;;;5031193;28;20411;-63
2021/01/13 11:18:36;;;;;;;6.93;2.93;;;3.50;99.90;;;;;;5032254;28;20410;-62
2021/01/13 11:21:08;;;;;;;8.00;3.00;;;3.40;99.90;;;;;;5034211;28;20174;-63
2021/01/13 11:23:44;;;;;;;8.97;3.07;;;3.40;99.90;;;;;;5052162;28;20543;-62
2021/01/13 11:26:10;;;;;;;8.47;3.17;;;3.40;99.90;;;;;;5051924;28;20806;-62
2021/01/13 11:28:43;;;;;;;8.10;2.10;;;3.40;99.90;;;;;;5045825;28;20487;-63
2021/01/13 11:31:11;;;;;;;5.30;2.70;;;3.40;99.90;;;;;;5040163;28;20509;-63
2021/01/13 11:33:44;;;;;;;5.47;2.50;;;3.30;99.90;;;;;;5048271;28;20947;-61
2021/01/13 11:36:10;;;;;;;9.07;2.73;;;3.30;99.90;;;;;;5051533;28;20496;-62
2021/01/13 11:38:36;;;;;;;3.67;1.83;;;3.30;99.90;;;;;;5051730;28;20471;-64
2021/01/13 11:41:26;;;;;;;5.17;2.10;;;3.30;99.90;;;;;;5051256;28;20429;-62
2021/01/13 11:44:16;;;;;;;8.50;2.27;;;3.40;99.90;;;;;;5050996;28;20171;-62
2021/01/13 11:46:45;;;;;;;9.47;2.37;;;3.30;99.90;;;;;;5051123;28;21086;-63
2021/01/13 11:49:25;;;;;;;3.27;1.90;;;3.40;99.90;;;;;;5051178;28;20418;-63
2021/01/13 11:51:55;;;;;;;8.57;3.30;;;3.50;99.90;;;;;;5051727;28;20433;-64
2021/01/13 11:54:29;;;;;;;8.43;3.13;;;3.60;99.90;;;;;;5049974;28;20422;-62
2021/01/13 11:57:15;;;;;;;4.50;2.30;;;3.80;99.90;;;;;;5051175;28;20912;-61
2021/01/13 11:59:41;;;;;;;5.13;1.97;;;3.90;99.90;;;;;;5050527;28;20425;-64
2021/01/13 12:02:21;;;;;;;5.47;2.50;;;4.20;99.90;;;;;;5051354;28;20452;-63
2021/01/13 12:04:48;;;;;;;8.13;2.33;;;4.10;99.90;;;;;;5051232;28;20216;-62
2021/01/13 12:07:14;;;;;;;7.53;2.67;;;4.20;99.90;;;;;;5051188;28;20413;-63
2021/01/13 12:09:41;;;;;;;7.93;2.70;;;4.20;99.90;;;;;;5050982;28;20416;-63
2021/01/13 12:12:07;;;;;;;6.63;2.30;;;4.60;99.90;;;;;;5051372;28;20699;-63
2021/01/13 12:14:43;;;;;;;6.10;2.20;;;4.50;99.90;;;;;;5050728;28;20738;-62
2021/01/13 12:17:10;;;;;;;4.83;2.10;;;4.40;99.90;;;;;;5051261;28;20420;-63
2021/01/13 12:19:40;;;;;;;7.03;2.50;;;4.40;99.90;;;;;;5050700;28;20770;-63
2021/01/13 12:22:06;;;;;;;8.33;2.10;;;4.40;99.90;;;;;;5050953;28;20465;-63
2021/01/13 12:24:42;;;;;;;8.77;2.77;;;4.70;99.90;;;;;;5051173;28;20421;-62
2021/01/13 12:27:24;;;;;;;8.50;2.10;;;4.80;99.90;;;;;;5050893;28;20417;-63
2021/01/13 12:30:06;;;;;;;6.40;2.00;;;4.90;99.90;;;;;;5050926;28;20916;-63
2021/01/13 12:32:33;;;;;;;7.37;1.83;;;5.20;99.90;;;;;;5051204;28;20468;-64
2021/01/13 12:34:59;;;;;;;11.37;2.40;;;5.10;99.90;;;;;;5050652;28;20516;-63
2021/01/13 12:37:24;;;;;;;6.50;2.17;;;5.00;99.90;;;;;;5050896;28;20536;-63
2021/01/13 12:39:57;;;;;;;7.93;2.03;;;5.00;99.90;;;;;;5049694;28;20427;-62
2021/01/13 12:42:33;;;;;;;6.33;2.33;;;5.00;99.90;;;;;;5049790;28;20599;-63
2021/01/13 12:44:59;;;;;;;11.63;2.60;;;4.60;99.90;;;;;;5050813;28;20422;-64
2021/01/13 12:47:26;;;;;;;6.93;2.20;;;5.10;99.90;;;;;;5050890;28;20981;-63
2021/01/13 12:49:52;;;;;;;6.73;2.20;;;5.40;99.90;;;;;;5050623;28;20186;-62
2021/01/13 12:52:18;;;;;;;4.73;1.43;;;5.40;99.90;;;;;;5050616;28;20904;-62
2021/01/13 12:54:44;;;;;;;5.63;2.63;;;4.70;99.90;;;;;;5050799;28;20175;-63
2021/01/13 12:57:09;;;;;;;5.13;2.87;;;5.30;99.90;;;;;;5050812;28;20918;-62
2021/01/13 12:59:35;;;;;;;9.10;2.10;;;5.30;99.90;;;;;;5050928;28;20179;-64
2021/01/13 13:02:01;;;;;;;6.40;2.30;;;5.30;99.90;;;;;;5050744;28;20522;-63
2021/01/13 13:04:26;;;;;;;5.37;2.50;;;5.40;99.90;;;;;;5050400;28;20237;-63
2021/01/13 13:06:52;;;;;;;5.33;2.60;;;5.30;99.90;;;;;;5050919;28;20179;-65
2021/01/13 13:09:17;;;;;;;6.83;2.87;;;5.20;99.90;;;;;;5050612;28;20175;-65
2021/01/13 13:11:43;;;;;;;12.53;4.37;;;5.20;99.90;;;;;;5050717;28;20540;-65
2021/01/13 13:14:11;;;;;;;8.93;3.37;;;5.30;99.90;;;;;;5050642;28;20181;-64